sensor_id;sensor_type;location;lat;lon;timestamp;temperature;humidity
24678;DHT22;12800;53.094;8.778;2022-09-09T00:00:26;17.40;87.60
24678;DHT22;12800;53.094;8.778;2022-09-09T00:03:16;17.40;87.60
24678;DHT22;12800;53.094;8.778;2022-09-09T00:05:57;17.40;87.80
24678;DHT22;12800;53.094;8.778;2022-09-09T00:08:48;17.40;87.80
24678;DHT22;12800;53.094;8.778;2022-09-09T00:11:20;17.50;87.90
24678;DHT22;12800;53.094;8.778;2022-09-09T00:13:52;17.40;87.80
24678;DHT22;12800;53.094;8.778;2022-09-09T00:16:27;17.40;87.80
24678;DHT22;12800;53.094;8.778;2022-09-09T00:22:12;17.40;88.10
24678;DHT22;12800;53.094;8.778;2022-09-09T00:32:18;17.30;88.30
24678;DHT22;12800;53.094;8.778;2022-09-09T00:35:12;17.30;88.20
24678;DHT22;12800;53.094;8.778;2022-09-09T00:37:42;17.30;88.40
24678;DHT22;12800;53.094;8.778;2022-09-09T00:40:24;17.30;88.50
24678;DHT22;12800;53.094;8.778;2022-09-09T00:43:09;17.30;88.50
24678;DHT22;12800;53.094;8.778;2022-09-09T00:46:08;17.30;88.50
24678;DHT22;12800;53.094;8.778;2022-09-09T00:51:23;17.30;88.40
24678;DHT22;12800;53.094;8.778;2022-09-09T00:56:53;17.30;88.40
24678;DHT22;12800;53.094;8.778;2022-09-09T00:59:28;17.30;88.40
24678;DHT22;12800;53.094;8.778;2022-09-09T01:01:55;17.30;88.40
24678;DHT22;12800;53.094;8.778;2022-09-09T01:04:34;17.30;88.40
24678;DHT22;12800;53.094;8.778;2022-09-09T01:07:13;17.20;88.20
24678;DHT22;12800;53.094;8.778;2022-09-09T01:09:51;17.20;88.20
24678;DHT22;12800;53.094;8.778;2022-09-09T01:12:33;17.30;88.40
24678;DHT22;12800;53.094;8.778;2022-09-09T01:15:12;17.20;88.20
24678;DHT22;12800;53.094;8.778;2022-09-09T01:20:31;17.20;88.20
24678;DHT22;12800;53.094;8.778;2022-09-09T01:28:16;17.20;88.00
24678;DHT22;12800;53.094;8.778;2022-09-09T01:30:43;17.20;88.00
24678;DHT22;12800;53.094;8.778;2022-09-09T01:33:18;17.20;87.90
24678;DHT22;12800;53.094;8.778;2022-09-09T01:35:52;17.20;87.80
24678;DHT22;12800;53.094;8.778;2022-09-09T01:38:22;17.10;87.70
24678;DHT22;12800;53.094;8.778;2022-09-09T01:40:49;17.10;87.70
24678;DHT22;12800;53.094;8.778;2022-09-09T01:43:19;17.10;87.60
24678;DHT22;12800;53.094;8.778;2022-09-09T01:45:46;17.10;87.60
24678;DHT22;12800;53.094;8.778;2022-09-09T01:48:14;17.10;87.60
24678;DHT22;12800;53.094;8.778;2022-09-09T01:50:39;17.10;87.60
24678;DHT22;12800;53.094;8.778;2022-09-09T01:53:06;17.00;87.50
24678;DHT22;12800;53.094;8.778;2022-09-09T01:55:39;17.00;87.40
24678;DHT22;12800;53.094;8.778;2022-09-09T02:01:53;17.00;87.20
24678;DHT22;12800;53.094;8.778;2022-09-09T02:04:05;17.00;87.10
24678;DHT22;12800;53.094;8.778;2022-09-09T02:06:40;17.00;87.00
24678;DHT22;12800;53.094;8.778;2022-09-09T02:09:07;17.00;87.00
24678;DHT22;12800;53.094;8.778;2022-09-09T02:11:35;17.00;87.00
24678;DHT22;12800;53.094;8.778;2022-09-09T02:14:15;17.00;86.90
24678;DHT22;12800;53.094;8.778;2022-09-09T02:16:48;17.00;86.90
24678;DHT22;12800;53.094;8.778;2022-09-09T02:19:25;16.90;86.80
24678;DHT22;12800;53.094;8.778;2022-09-09T02:21:55;16.90;86.80
24678;DHT22;12800;53.094;8.778;2022-09-09T02:24:21;16.90;86.90
24678;DHT22;12800;53.094;8.778;2022-09-09T02:26:50;16.90;86.70
24678;DHT22;12800;53.094;8.778;2022-09-09T02:29:23;16.90;86.80
24678;DHT22;12800;53.094;8.778;2022-09-09T02:31:51;16.90;86.80
24678;DHT22;12800;53.094;8.778;2022-09-09T02:34:19;16.90;86.70
24678;DHT22;12800;53.094;8.778;2022-09-09T02:36:46;16.90;86.80
24678;DHT22;12800;53.094;8.778;2022-09-09T02:39:13;16.90;86.70
24678;DHT22;12800;53.094;8.778;2022-09-09T02:41:40;16.80;86.60
24678;DHT22;12800;53.094;8.778;2022-09-09T02:44:15;16.80;86.60
24678;DHT22;12800;53.094;8.778;2022-09-09T02:49:43;16.80;86.60
24678;DHT22;12800;53.094;8.778;2022-09-09T02:52:15;16.80;86.60
24678;DHT22;12800;53.094;8.778;2022-09-09T02:54:42;16.80;86.60
24678;DHT22;12800;53.094;8.778;2022-09-09T02:57:16;16.70;86.60
24678;DHT22;12800;53.094;8.778;2022-09-09T02:59:44;16.70;86.60
24678;DHT22;12800;53.094;8.778;2022-09-09T03:02:10;16.70;86.60
24678;DHT22;12800;53.094;8.778;2022-09-09T03:04:37;16.70;86.50
24678;DHT22;12800;53.094;8.778;2022-09-09T03:07:02;16.70;86.60
24678;DHT22;12800;53.094;8.778;2022-09-09T03:09:29;16.70;86.60
24678;DHT22;12800;53.094;8.778;2022-09-09T03:11:55;16.60;86.40
24678;DHT22;12800;53.094;8.778;2022-09-09T03:14:21;16.60;86.40
24678;DHT22;12800;53.094;8.778;2022-09-09T03:16:50;16.60;86.30
24678;DHT22;12800;53.094;8.778;2022-09-09T03:19:16;16.60;86.40
24678;DHT22;12800;53.094;8.778;2022-09-09T03:21:41;16.60;86.40
24678;DHT22;12800;53.094;8.778;2022-09-09T03:24:07;16.60;86.50
24678;DHT22;12800;53.094;8.778;2022-09-09T03:26:33;16.60;86.60
24678;DHT22;12800;53.094;8.778;2022-09-09T03:28:58;16.60;86.50
24678;DHT22;12800;53.094;8.778;2022-09-09T03:31:26;16.60;86.60
24678;DHT22;12800;53.094;8.778;2022-09-09T03:33:56;16.60;86.40
24678;DHT22;12800;53.094;8.778;2022-09-09T03:36:22;16.60;86.50
24678;DHT22;12800;53.094;8.778;2022-09-09T03:38:48;16.60;86.40
24678;DHT22;12800;53.094;8.778;2022-09-09T03:41:13;16.60;86.30
24678;DHT22;12800;53.094;8.778;2022-09-09T03:43:39;16.60;86.20
24678;DHT22;12800;53.094;8.778;2022-09-09T03:46:05;16.70;86.30
24678;DHT22;12800;53.094;8.778;2022-09-09T03:48:31;16.70;86.20
24678;DHT22;12800;53.094;8.778;2022-09-09T03:50:56;16.70;86.20
24678;DHT22;12800;53.094;8.778;2022-09-09T03:53:23;16.70;86.20
24678;DHT22;12800;53.094;8.778;2022-09-09T03:55:52;16.70;86.10
24678;DHT22;12800;53.094;8.778;2022-09-09T03:58:21;16.70;86.00
24678;DHT22;12800;53.094;8.778;2022-09-09T04:00:55;16.70;86.00
24678;DHT22;12800;53.094;8.778;2022-09-09T04:03:21;16.70;85.90
24678;DHT22;12800;53.094;8.778;2022-09-09T04:05:49;16.70;86.30
24678;DHT22;12800;53.094;8.778;2022-09-09T04:08:14;16.70;85.80
24678;DHT22;12800;53.094;8.778;2022-09-09T04:10:40;16.70;85.80
24678;DHT22;12800;53.094;8.778;2022-09-09T04:13:06;16.70;85.90
24678;DHT22;12800;53.094;8.778;2022-09-09T04:15:32;16.70;85.80
24678;DHT22;12800;53.094;8.778;2022-09-09T04:17:58;16.70;85.80
24678;DHT22;12800;53.094;8.778;2022-09-09T04:20:24;16.70;85.70
24678;DHT22;12800;53.094;8.778;2022-09-09T04:22:49;16.70;85.70
24678;DHT22;12800;53.094;8.778;2022-09-09T04:25:15;16.80;85.80
24678;DHT22;12800;53.094;8.778;2022-09-09T04:27:41;16.80;85.80
24678;DHT22;12800;53.094;8.778;2022-09-09T04:30:08;16.80;85.80
24678;DHT22;12800;53.094;8.778;2022-09-09T04:32:34;16.80;85.80
24678;DHT22;12800;53.094;8.778;2022-09-09T04:35:01;16.80;85.80
24678;DHT22;12800;53.094;8.778;2022-09-09T04:37:27;16.80;85.70
24678;DHT22;12800;53.094;8.778;2022-09-09T04:39:52;16.80;85.80
24678;DHT22;12800;53.094;8.778;2022-09-09T04:42:18;16.90;85.90
24678;DHT22;12800;53.094;8.778;2022-09-09T04:44:44;16.90;85.90
24678;DHT22;12800;53.094;8.778;2022-09-09T04:47:10;16.90;85.90
24678;DHT22;12800;53.094;8.778;2022-09-09T04:49:36;16.80;85.80
24678;DHT22;12800;53.094;8.778;2022-09-09T04:52:03;16.80;85.80
24678;DHT22;12800;53.094;8.778;2022-09-09T04:54:29;16.90;85.90
24678;DHT22;12800;53.094;8.778;2022-09-09T04:56:54;16.80;85.80
24678;DHT22;12800;53.094;8.778;2022-09-09T04:59:20;16.90;86.00
24678;DHT22;12800;53.094;8.778;2022-09-09T05:01:47;16.90;86.00
24678;DHT22;12800;53.094;8.778;2022-09-09T05:04:13;16.90;86.10
24678;DHT22;12800;53.094;8.778;2022-09-09T05:06:40;16.90;86.00
24678;DHT22;12800;53.094;8.778;2022-09-09T05:09:07;16.90;85.80
24678;DHT22;12800;53.094;8.778;2022-09-09T05:11:32;16.90;85.90
24678;DHT22;12800;53.094;8.778;2022-09-09T05:14:01;16.80;85.80
24678;DHT22;12800;53.094;8.778;2022-09-09T05:16:27;16.80;85.80
24678;DHT22;12800;53.094;8.778;2022-09-09T05:18:52;16.80;85.80
24678;DHT22;12800;53.094;8.778;2022-09-09T05:21:22;16.80;85.80
24678;DHT22;12800;53.094;8.778;2022-09-09T05:23:48;16.80;85.80
24678;DHT22;12800;53.094;8.778;2022-09-09T05:26:19;16.80;85.90
24678;DHT22;12800;53.094;8.778;2022-09-09T05:28:45;16.80;85.90
24678;DHT22;12800;53.094;8.778;2022-09-09T05:31:12;16.70;86.00
24678;DHT22;12800;53.094;8.778;2022-09-09T05:33:39;16.70;86.00
24678;DHT22;12800;53.094;8.778;2022-09-09T05:36:11;16.70;86.00
24678;DHT22;12800;53.094;8.778;2022-09-09T05:38:39;16.70;86.10
24678;DHT22;12800;53.094;8.778;2022-09-09T05:41:06;16.70;86.20
24678;DHT22;12800;53.094;8.778;2022-09-09T05:43:32;16.80;86.20
24678;DHT22;12800;53.094;8.778;2022-09-09T05:46:01;16.80;86.30
24678;DHT22;12800;53.094;8.778;2022-09-09T05:48:34;16.80;86.20
24678;DHT22;12800;53.094;8.778;2022-09-09T05:51:01;16.80;86.30
24678;DHT22;12800;53.094;8.778;2022-09-09T05:53:28;16.80;86.20
24678;DHT22;12800;53.094;8.778;2022-09-09T05:56:08;16.80;86.20
24678;DHT22;12800;53.094;8.778;2022-09-09T05:58:36;16.80;86.10
24678;DHT22;12800;53.094;8.778;2022-09-09T06:01:10;16.80;86.10
24678;DHT22;12800;53.094;8.778;2022-09-09T06:03:38;16.90;86.20
24678;DHT22;12800;53.094;8.778;2022-09-09T06:06:06;16.80;86.00
24678;DHT22;12800;53.094;8.778;2022-09-09T06:08:33;16.80;86.10
24678;DHT22;12800;53.094;8.778;2022-09-09T06:11:19;16.90;86.20
24678;DHT22;12800;53.094;8.778;2022-09-09T06:13:47;16.90;86.20
24678;DHT22;12800;53.094;8.778;2022-09-09T06:16:16;16.90;86.10
24678;DHT22;12800;53.094;8.778;2022-09-09T06:18:42;17.00;86.10
24678;DHT22;12800;53.094;8.778;2022-09-09T06:21:13;17.00;86.10
24678;DHT22;12800;53.094;8.778;2022-09-09T06:23:40;17.00;86.00
24678;DHT22;12800;53.094;8.778;2022-09-09T06:26:13;17.00;85.90
24678;DHT22;12800;53.094;8.778;2022-09-09T06:28:39;17.00;85.80
24678;DHT22;12800;53.094;8.778;2022-09-09T06:31:07;17.10;85.80
24678;DHT22;12800;53.094;8.778;2022-09-09T06:33:38;17.10;85.70
24678;DHT22;12800;53.094;8.778;2022-09-09T06:36:13;17.10;85.50
24678;DHT22;12800;53.094;8.778;2022-09-09T06:38:41;17.10;85.50
24678;DHT22;12800;53.094;8.778;2022-09-09T06:41:08;17.10;85.40
24678;DHT22;12800;53.094;8.778;2022-09-09T06:43:34;17.20;85.50
24678;DHT22;12800;53.094;8.778;2022-09-09T06:46:05;17.20;85.50
24678;DHT22;12800;53.094;8.778;2022-09-09T06:48:31;17.20;85.40
24678;DHT22;12800;53.094;8.778;2022-09-09T06:51:05;17.20;85.40
24678;DHT22;12800;53.094;8.778;2022-09-09T06:53:35;17.20;85.30
24678;DHT22;12800;53.094;8.778;2022-09-09T06:56:02;17.20;85.60
24678;DHT22;12800;53.094;8.778;2022-09-09T06:58:41;17.20;85.30
24678;DHT22;12800;53.094;8.778;2022-09-09T07:01:12;17.20;85.20
24678;DHT22;12800;53.094;8.778;2022-09-09T07:03:41;17.20;85.10
24678;DHT22;12800;53.094;8.778;2022-09-09T07:06:09;17.20;85.10
24678;DHT22;12800;53.094;8.778;2022-09-09T07:08:39;17.30;85.10
24678;DHT22;12800;53.094;8.778;2022-09-09T07:11:07;17.30;85.10
24678;DHT22;12800;53.094;8.778;2022-09-09T07:13:33;17.30;85.20
24678;DHT22;12800;53.094;8.778;2022-09-09T07:16:08;17.30;85.10
24678;DHT22;12800;53.094;8.778;2022-09-09T07:18:34;17.30;85.10
24678;DHT22;12800;53.094;8.778;2022-09-09T07:21:01;17.40;85.00
24678;DHT22;12800;53.094;8.778;2022-09-09T07:23:27;17.40;85.00
24678;DHT22;12800;53.094;8.778;2022-09-09T07:25:53;17.50;85.00
24678;DHT22;12800;53.094;8.778;2022-09-09T07:28:20;17.50;84.70
24678;DHT22;12800;53.094;8.778;2022-09-09T07:31:04;17.50;84.60
24678;DHT22;12800;53.094;8.778;2022-09-09T07:33:32;17.60;84.50
24678;DHT22;12800;53.094;8.778;2022-09-09T07:36:07;17.60;84.50
24678;DHT22;12800;53.094;8.778;2022-09-09T07:38:45;17.60;84.50
24678;DHT22;12800;53.094;8.778;2022-09-09T07:41:13;17.70;84.60
24678;DHT22;12800;53.094;8.778;2022-09-09T07:43:41;17.80;84.70
24678;DHT22;12800;53.094;8.778;2022-09-09T07:46:07;17.80;84.60
24678;DHT22;12800;53.094;8.778;2022-09-09T07:48:33;17.90;84.70
24678;DHT22;12800;53.094;8.778;2022-09-09T07:51:21;18.00;84.50
24678;DHT22;12800;53.094;8.778;2022-09-09T07:53:51;18.00;84.40
24678;DHT22;12800;53.094;8.778;2022-09-09T07:56:18;18.10;84.40
24678;DHT22;12800;53.094;8.778;2022-09-09T07:58:47;18.10;84.20
24678;DHT22;12800;53.094;8.778;2022-09-09T08:01:16;18.10;84.20
24678;DHT22;12800;53.094;8.778;2022-09-09T08:03:44;18.20;84.20
24678;DHT22;12800;53.094;8.778;2022-09-09T08:06:10;18.20;84.20
24678;DHT22;12800;53.094;8.778;2022-09-09T08:08:38;18.20;84.20
24678;DHT22;12800;53.094;8.778;2022-09-09T08:11:08;18.20;84.20
24678;DHT22;12800;53.094;8.778;2022-09-09T08:13:38;18.20;84.30
24678;DHT22;12800;53.094;8.778;2022-09-09T08:16:16;18.20;84.30
24678;DHT22;12800;53.094;8.778;2022-09-09T08:18:42;18.30;84.30
24678;DHT22;12800;53.094;8.778;2022-09-09T08:21:18;18.30;84.30
24678;DHT22;12800;53.094;8.778;2022-09-09T08:23:45;18.40;84.40
24678;DHT22;12800;53.094;8.778;2022-09-09T08:26:17;18.40;84.20
24678;DHT22;12800;53.094;8.778;2022-09-09T08:28:48;18.50;84.40
24678;DHT22;12800;53.094;8.778;2022-09-09T08:31:27;18.60;84.40
24678;DHT22;12800;53.094;8.778;2022-09-09T08:33:57;18.60;84.30
24678;DHT22;12800;53.094;8.778;2022-09-09T08:36:26;18.70;84.10
24678;DHT22;12800;53.094;8.778;2022-09-09T08:38:54;18.80;84.70
24678;DHT22;12800;53.094;8.778;2022-09-09T08:52:02;19.20;82.60
24678;DHT22;12800;53.094;8.778;2022-09-09T08:54:33;19.30;82.10
24678;DHT22;12800;53.094;8.778;2022-09-09T08:57:00;19.40;81.60
24678;DHT22;12800;53.094;8.778;2022-09-09T08:59:25;19.50;81.40
24678;DHT22;12800;53.094;8.778;2022-09-09T09:04:41;19.60;80.80
24678;DHT22;12800;53.094;8.778;2022-09-09T09:10:47;19.80;80.20
24678;DHT22;12800;53.094;8.778;2022-09-09T09:18:56;20.00;78.80
24678;DHT22;12800;53.094;8.778;2022-09-09T09:21:34;20.10;78.30
24678;DHT22;12800;53.094;8.778;2022-09-09T09:24:01;20.20;78.20
24678;DHT22;12800;53.094;8.778;2022-09-09T09:26:35;20.30;78.00
24678;DHT22;12800;53.094;8.778;2022-09-09T09:29:12;20.40;77.70
24678;DHT22;12800;53.094;8.778;2022-09-09T09:31:38;20.50;77.40
24678;DHT22;12800;53.094;8.778;2022-09-09T09:34:04;20.60;77.00
24678;DHT22;12800;53.094;8.778;2022-09-09T09:36:45;20.70;77.60
24678;DHT22;12800;53.094;8.778;2022-09-09T09:39:29;20.80;76.40
24678;DHT22;12800;53.094;8.778;2022-09-09T09:41:55;20.90;76.30
24678;DHT22;12800;53.094;8.778;2022-09-09T09:44:27;21.00;76.00
24678;DHT22;12800;53.094;8.778;2022-09-09T09:47:04;21.10;75.50
24678;DHT22;12800;53.094;8.778;2022-09-09T09:49:30;21.10;75.00
24678;DHT22;12800;53.094;8.778;2022-09-09T09:52:01;21.20;74.60
24678;DHT22;12800;53.094;8.778;2022-09-09T09:54:37;21.30;73.90
24678;DHT22;12800;53.094;8.778;2022-09-09T09:57:14;21.30;73.80
24678;DHT22;12800;53.094;8.778;2022-09-09T09:59:41;21.20;73.60
24678;DHT22;12800;53.094;8.778;2022-09-09T10:02:25;21.20;73.70
24678;DHT22;12800;53.094;8.778;2022-09-09T10:05:08;21.10;73.90
24678;DHT22;12800;53.094;8.778;2022-09-09T10:07:37;21.10;74.10
24678;DHT22;12800;53.094;8.778;2022-09-09T10:10:04;21.20;74.10
24678;DHT22;12800;53.094;8.778;2022-09-09T10:13:05;21.30;73.90
24678;DHT22;12800;53.094;8.778;2022-09-09T10:18:26;21.30;74.10
24678;DHT22;12800;53.094;8.778;2022-09-09T10:26:48;21.30;73.60
24678;DHT22;12800;53.094;8.778;2022-09-09T10:43:13;21.50;72.60
24678;DHT22;12800;53.094;8.778;2022-09-09T10:46:02;21.60;72.40
24678;DHT22;12800;53.094;8.778;2022-09-09T10:56:44;21.90;71.40
24678;DHT22;12800;53.094;8.778;2022-09-09T10:59:18;21.90;71.10
24678;DHT22;12800;53.094;8.778;2022-09-09T11:01:52;21.90;70.50
24678;DHT22;12800;53.094;8.778;2022-09-09T11:04:27;21.90;70.30
24678;DHT22;12800;53.094;8.778;2022-09-09T11:06:56;21.90;70.00
24678;DHT22;12800;53.094;8.778;2022-09-09T11:09:25;21.80;69.80
24678;DHT22;12800;53.094;8.778;2022-09-09T11:11:57;21.80;69.60
24678;DHT22;12800;53.094;8.778;2022-09-09T11:14:43;21.80;69.50
24678;DHT22;12800;53.094;8.778;2022-09-09T11:17:33;21.70;69.60
24678;DHT22;12800;53.094;8.778;2022-09-09T11:20:01;21.70;69.80
24678;DHT22;12800;53.094;8.778;2022-09-09T11:22:42;21.70;69.70
24678;DHT22;12800;53.094;8.778;2022-09-09T11:25:16;21.70;69.70
24678;DHT22;12800;53.094;8.778;2022-09-09T11:34:13;21.90;69.40
24678;DHT22;12800;53.094;8.778;2022-09-09T11:44:40;21.80;68.90
24678;DHT22;12800;53.094;8.778;2022-09-09T11:47:25;21.80;69.10
24678;DHT22;12800;53.094;8.778;2022-09-09T11:49:55;21.80;69.20
24678;DHT22;12800;53.094;8.778;2022-09-09T11:52:35;21.80;69.40
24678;DHT22;12800;53.094;8.778;2022-09-09T11:55:24;21.80;69.50
24678;DHT22;12800;53.094;8.778;2022-09-09T11:58:15;21.70;69.50
24678;DHT22;12800;53.094;8.778;2022-09-09T12:00:49;21.70;70.50
24678;DHT22;12800;53.094;8.778;2022-09-09T12:03:46;21.60;70.00
24678;DHT22;12800;53.094;8.778;2022-09-09T12:08:50;21.50;70.30
24678;DHT22;12800;53.094;8.778;2022-09-09T12:11:26;21.40;69.90
24678;DHT22;12800;53.094;8.778;2022-09-09T12:13:56;21.40;70.30
24678;DHT22;12800;53.094;8.778;2022-09-09T12:16:34;21.30;70.80
24678;DHT22;12800;53.094;8.778;2022-09-09T12:22:04;21.10;72.90
24678;DHT22;12800;53.094;8.778;2022-09-09T12:27:20;20.80;74.50
24678;DHT22;12800;53.094;8.778;2022-09-09T12:30:09;20.70;75.50
24678;DHT22;12800;53.094;8.778;2022-09-09T12:32:35;20.50;76.70
24678;DHT22;12800;53.094;8.778;2022-09-09T12:35:09;20.40;77.00
24678;DHT22;12800;53.094;8.778;2022-09-09T12:37:44;20.20;77.10
24678;DHT22;12800;53.094;8.778;2022-09-09T12:40:21;20.10;77.50
24678;DHT22;12800;53.094;8.778;2022-09-09T12:42:47;20.00;78.30
24678;DHT22;12800;53.094;8.778;2022-09-09T12:45:22;19.80;79.10
24678;DHT22;12800;53.094;8.778;2022-09-09T12:48:00;19.70;79.80
24678;DHT22;12800;53.094;8.778;2022-09-09T12:50:31;19.70;80.30
24678;DHT22;12800;53.094;8.778;2022-09-09T12:53:09;19.60;80.80
24678;DHT22;12800;53.094;8.778;2022-09-09T12:55:37;19.60;81.50
24678;DHT22;12800;53.094;8.778;2022-09-09T12:58:05;19.60;82.20
24678;DHT22;12800;53.094;8.778;2022-09-09T13:00:32;19.60;83.60
24678;DHT22;12800;53.094;8.778;2022-09-09T13:03:13;19.60;83.30
24678;DHT22;12800;53.094;8.778;2022-09-09T13:05:40;19.70;83.60
24678;DHT22;12800;53.094;8.778;2022-09-09T13:08:10;19.70;83.90
24678;DHT22;12800;53.094;8.778;2022-09-09T13:10:52;19.70;83.80
24678;DHT22;12800;53.094;8.778;2022-09-09T13:13:22;19.80;83.50
24678;DHT22;12800;53.094;8.778;2022-09-09T13:15:53;19.90;83.50
24678;DHT22;12800;53.094;8.778;2022-09-09T13:18:23;19.90;83.60
24678;DHT22;12800;53.094;8.778;2022-09-09T13:20:50;20.10;83.50
24678;DHT22;12800;53.094;8.778;2022-09-09T13:23:18;20.10;82.50
24678;DHT22;12800;53.094;8.778;2022-09-09T13:25:56;20.20;82.30
24678;DHT22;12800;53.094;8.778;2022-09-09T13:28:23;20.30;82.30
24678;DHT22;12800;53.094;8.778;2022-09-09T13:31:20;20.40;82.40
24678;DHT22;12800;53.094;8.778;2022-09-09T13:33:46;20.60;82.30
24678;DHT22;12800;53.094;8.778;2022-09-09T13:36:13;20.60;81.70
24678;DHT22;12800;53.094;8.778;2022-09-09T13:41:22;20.70;81.90
24678;DHT22;12800;53.094;8.778;2022-09-09T13:43:50;20.80;81.30
24678;DHT22;12800;53.094;8.778;2022-09-09T13:46:28;20.80;81.40
24678;DHT22;12800;53.094;8.778;2022-09-09T13:48:56;20.80;81.20
24678;DHT22;12800;53.094;8.778;2022-09-09T13:54:11;20.90;80.90
24678;DHT22;12800;53.094;8.778;2022-09-09T13:56:38;21.00;80.50
24678;DHT22;12800;53.094;8.778;2022-09-09T13:59:05;21.00;80.10
24678;DHT22;12800;53.094;8.778;2022-09-09T14:01:32;21.00;79.90
24678;DHT22;12800;53.094;8.778;2022-09-09T14:04:00;21.00;79.80
24678;DHT22;12800;53.094;8.778;2022-09-09T14:06:26;21.00;79.60
24678;DHT22;12800;53.094;8.778;2022-09-09T14:08:53;21.00;79.60
24678;DHT22;12800;53.094;8.778;2022-09-09T14:11:20;21.00;79.50
24678;DHT22;12800;53.094;8.778;2022-09-09T14:13:47;20.90;79.30
24678;DHT22;12800;53.094;8.778;2022-09-09T14:16:15;20.90;79.30
24678;DHT22;12800;53.094;8.778;2022-09-09T14:18:41;20.90;79.10
24678;DHT22;12800;53.094;8.778;2022-09-09T14:21:07;20.80;79.30
24678;DHT22;12800;53.094;8.778;2022-09-09T14:23:34;20.70;79.40
24678;DHT22;12800;53.094;8.778;2022-09-09T14:25:59;20.70;79.60
24678;DHT22;12800;53.094;8.778;2022-09-09T14:28:25;20.60;79.40
24678;DHT22;12800;53.094;8.778;2022-09-09T14:30:51;20.50;80.00
24678;DHT22;12800;53.094;8.778;2022-09-09T14:33:16;20.40;80.00
24678;DHT22;12800;53.094;8.778;2022-09-09T14:35:43;20.30;80.40
24678;DHT22;12800;53.094;8.778;2022-09-09T14:38:09;20.20;80.40
24678;DHT22;12800;53.094;8.778;2022-09-09T14:40:36;20.10;80.50
24678;DHT22;12800;53.094;8.778;2022-09-09T14:43:02;20.00;80.60
24678;DHT22;12800;53.094;8.778;2022-09-09T14:45:28;20.00;80.30
24678;DHT22;12800;53.094;8.778;2022-09-09T14:47:54;19.80;80.60
24678;DHT22;12800;53.094;8.778;2022-09-09T14:50:20;19.70;81.20
24678;DHT22;12800;53.094;8.778;2022-09-09T14:52:46;19.60;81.60
24678;DHT22;12800;53.094;8.778;2022-09-09T14:55:12;19.60;82.00
24678;DHT22;12800;53.094;8.778;2022-09-09T14:57:38;19.50;83.20
24678;DHT22;12800;53.094;8.778;2022-09-09T15:00:06;19.40;82.70
24678;DHT22;12800;53.094;8.778;2022-09-09T15:02:32;19.40;83.00
24678;DHT22;12800;53.094;8.778;2022-09-09T15:04:58;19.30;84.20
24678;DHT22;12800;53.094;8.778;2022-09-09T15:07:24;19.30;83.40
24678;DHT22;12800;53.094;8.778;2022-09-09T15:09:50;19.30;83.60
24678;DHT22;12800;53.094;8.778;2022-09-09T15:12:17;19.20;84.60
24678;DHT22;12800;53.094;8.778;2022-09-09T15:14:44;19.20;83.90
24678;DHT22;12800;53.094;8.778;2022-09-09T15:17:10;19.20;84.10
24678;DHT22;12800;53.094;8.778;2022-09-09T15:19:37;19.20;84.40
24678;DHT22;12800;53.094;8.778;2022-09-09T15:22:03;19.20;84.40
24678;DHT22;12800;53.094;8.778;2022-09-09T15:24:31;19.20;84.40
24678;DHT22;12800;53.094;8.778;2022-09-09T15:26:57;19.10;84.60
24678;DHT22;12800;53.094;8.778;2022-09-09T15:29:23;19.20;84.90
24678;DHT22;12800;53.094;8.778;2022-09-09T15:31:49;19.10;84.80
24678;DHT22;12800;53.094;8.778;2022-09-09T15:34:14;19.10;85.00
24678;DHT22;12800;53.094;8.778;2022-09-09T15:36:44;19.10;85.00
24678;DHT22;12800;53.094;8.778;2022-09-09T15:39:16;19.10;84.90
24678;DHT22;12800;53.094;8.778;2022-09-09T15:41:43;19.10;84.90
24678;DHT22;12800;53.094;8.778;2022-09-09T15:44:10;19.10;85.00
24678;DHT22;12800;53.094;8.778;2022-09-09T15:46:45;19.10;85.00
24678;DHT22;12800;53.094;8.778;2022-09-09T15:49:19;19.10;84.90
24678;DHT22;12800;53.094;8.778;2022-09-09T15:51:47;19.10;85.00
24678;DHT22;12800;53.094;8.778;2022-09-09T15:54:18;19.10;85.10
24678;DHT22;12800;53.094;8.778;2022-09-09T15:56:44;19.10;85.10
24678;DHT22;12800;53.094;8.778;2022-09-09T15:59:10;19.00;85.80
24678;DHT22;12800;53.094;8.778;2022-09-09T16:01:38;19.10;84.90
24678;DHT22;12800;53.094;8.778;2022-09-09T16:04:08;19.10;84.80
24678;DHT22;12800;53.094;8.778;2022-09-09T16:06:34;19.10;84.60
24678;DHT22;12800;53.094;8.778;2022-09-09T16:09:03;19.10;84.40
24678;DHT22;12800;53.094;8.778;2022-09-09T16:11:35;19.10;84.50
24678;DHT22;12800;53.094;8.778;2022-09-09T16:14:02;19.10;84.40
24678;DHT22;12800;53.094;8.778;2022-09-09T16:16:29;19.10;84.50
24678;DHT22;12800;53.094;8.778;2022-09-09T16:19:00;19.00;84.60
24678;DHT22;12800;53.094;8.778;2022-09-09T16:21:31;19.10;84.70
24678;DHT22;12800;53.094;8.778;2022-09-09T16:23:59;19.10;84.40
24678;DHT22;12800;53.094;8.778;2022-09-09T16:26:25;19.00;84.20
24678;DHT22;12800;53.094;8.778;2022-09-09T16:28:50;19.00;84.20
24678;DHT22;12800;53.094;8.778;2022-09-09T16:31:22;19.10;84.30
24678;DHT22;12800;53.094;8.778;2022-09-09T16:33:48;19.10;84.40
24678;DHT22;12800;53.094;8.778;2022-09-09T16:36:22;19.10;84.40
24678;DHT22;12800;53.094;8.778;2022-09-09T16:38:52;19.10;84.20
24678;DHT22;12800;53.094;8.778;2022-09-09T16:41:19;19.10;84.90
24678;DHT22;12800;53.094;8.778;2022-09-09T16:43:45;19.10;84.00
24678;DHT22;12800;53.094;8.778;2022-09-09T16:46:19;19.10;84.10
24678;DHT22;12800;53.094;8.778;2022-09-09T16:48:46;19.10;83.90
24678;DHT22;12800;53.094;8.778;2022-09-09T16:51:16;19.10;83.70
24678;DHT22;12800;53.094;8.778;2022-09-09T16:53:42;19.10;83.80
24678;DHT22;12800;53.094;8.778;2022-09-09T16:56:13;19.10;83.80
24678;DHT22;12800;53.094;8.778;2022-09-09T16:58:39;19.10;83.40
24678;DHT22;12800;53.094;8.778;2022-09-09T17:01:05;19.00;82.90
24678;DHT22;12800;53.094;8.778;2022-09-09T17:03:31;19.00;82.60
24678;DHT22;12800;53.094;8.778;2022-09-09T17:05:59;19.00;82.00
24678;DHT22;12800;53.094;8.778;2022-09-09T17:08:31;19.00;81.70
24678;DHT22;12800;53.094;8.778;2022-09-09T17:10:58;19.00;81.90
24678;DHT22;12800;53.094;8.778;2022-09-09T17:13:24;18.90;82.00
24678;DHT22;12800;53.094;8.778;2022-09-09T17:15:50;18.90;82.40
24678;DHT22;12800;53.094;8.778;2022-09-09T17:18:16;18.90;81.90
24678;DHT22;12800;53.094;8.778;2022-09-09T17:20:42;18.90;81.60
24678;DHT22;12800;53.094;8.778;2022-09-09T17:23:10;18.80;81.30
24678;DHT22;12800;53.094;8.778;2022-09-09T17:25:36;18.80;81.30
24678;DHT22;12800;53.094;8.778;2022-09-09T17:28:03;18.80;81.60
24678;DHT22;12800;53.094;8.778;2022-09-09T17:30:32;18.70;81.40
24678;DHT22;12800;53.094;8.778;2022-09-09T17:32:59;18.70;81.50
24678;DHT22;12800;53.094;8.778;2022-09-09T17:35:25;18.70;81.60
24678;DHT22;12800;53.094;8.778;2022-09-09T17:37:53;18.60;81.60
24678;DHT22;12800;53.094;8.778;2022-09-09T17:40:19;18.60;81.70